sensor_id;sensor_type;location;lat;lon;timestamp;pressure;altitude;pressure_sealevel;temperature;humidity
70968;BME280;58629;48.808;8.820;2024-01-15T00:01:16;96065.16;;;-2.69;100.00
70968;BME280;58629;48.808;8.820;2024-01-15T00:03:41;96059.97;;;-2.69;100.00
70968;BME280;58629;48.808;8.820;2024-01-15T00:06:06;96063.72;;;-2.67;100.00
70968;BME280;58629;48.808;8.820;2024-01-15T00:08:32;96061.50;;;-2.68;100.00
70968;BME280;58629;48.808;8.820;2024-01-15T00:10:58;96067.75;;;-2.69;100.00
70968;BME280;58629;48.808;8.820;2024-01-15T00:13:23;96057.47;;;-2.66;100.00
70968;BME280;58629;48.808;8.820;2024-01-15T00:15:49;96056.38;;;-2.65;99.07
70968;BME280;58629;48.808;8.820;2024-01-15T00:18:14;96052.97;;;-2.69;100.00
70968;BME280;58629;48.808;8.820;2024-01-15T00:20:39;96064.03;;;-2.72;100.00
70968;BME280;58629;48.808;8.820;2024-01-15T00:23:05;96059.25;;;-2.70;100.00
70968;BME280;58629;48.808;8.820;2024-01-15T00:25:30;96051.13;;;-2.68;100.00
70968;BME280;58629;48.808;8.820;2024-01-15T00:27:55;96055.59;;;-2.65;100.00
70968;BME280;58629;48.808;8.820;2024-01-15T00:30:21;96049.41;;;-2.60;100.00
70968;BME280;58629;48.808;8.820;2024-01-15T00:32:46;96059.09;;;-2.57;100.00
70968;BME280;58629;48.808;8.820;2024-01-15T00:35:11;96043.91;;;-2.55;100.00
70968;BME280;58629;48.808;8.820;2024-01-15T00:37:37;96042.47;;;-2.53;100.00
70968;BME280;58629;48.808;8.820;2024-01-15T00:40:03;96043.63;;;-2.50;100.00
70968;BME280;58629;48.808;8.820;2024-01-15T00:42:29;96044.03;;;-2.48;100.00
70968;BME280;58629;48.808;8.820;2024-01-15T00:44:54;96046.25;;;-2.47;100.00
70968;BME280;58629;48.808;8.820;2024-01-15T00:47:20;96042.25;;;-2.44;100.00
70968;BME280;58629;48.808;8.820;2024-01-15T00:49:45;96046.31;;;-2.43;100.00
70968;BME280;58629;48.808;8.820;2024-01-15T00:52:10;96047.13;;;-2.39;100.00
70968;BME280;58629;48.808;8.820;2024-01-15T00:54:36;96052.38;;;-2.36;100.00
70968;BME280;58629;48.808;8.820;2024-01-15T00:57:01;96053.84;;;-2.35;100.00
70968;BME280;58629;48.808;8.820;2024-01-15T00:59:26;96056.84;;;-2.33;100.00
70968;BME280;58629;48.808;8.820;2024-01-15T01:01:52;96060.94;;;-2.32;100.00
70968;BME280;58629;48.808;8.820;2024-01-15T01:04:17;96060.59;;;-2.30;100.00
70968;BME280;58629;48.808;8.820;2024-01-15T01:06:42;96057.66;;;-2.29;99.90
70968;BME280;58629;48.808;8.820;2024-01-15T01:09:08;96054.75;;;-2.24;99.86
70968;BME280;58629;48.808;8.820;2024-01-15T01:11:33;96052.91;;;-2.23;99.65
70968;BME280;58629;48.808;8.820;2024-01-15T01:13:58;96054.41;;;-2.22;100.00
70968;BME280;58629;48.808;8.820;2024-01-15T01:16:24;96059.25;;;-2.21;99.46
70968;BME280;58629;48.808;8.820;2024-01-15T01:18:49;96050.06;;;-2.15;99.18
70968;BME280;58629;48.808;8.820;2024-01-15T01:21:14;96051.50;;;-2.17;99.63
70968;BME280;58629;48.808;8.820;2024-01-15T01:23:40;96047.44;;;-2.18;99.27
70968;BME280;58629;48.808;8.820;2024-01-15T01:26:05;96044.13;;;-2.15;98.76
70968;BME280;58629;48.808;8.820;2024-01-15T01:28:30;96042.69;;;-2.13;98.29
70968;BME280;58629;48.808;8.820;2024-01-15T01:30:55;96047.16;;;-2.10;99.21
70968;BME280;58629;48.808;8.820;2024-01-15T01:33:21;96045.28;;;-2.13;98.18
70968;BME280;58629;48.808;8.820;2024-01-15T01:35:46;96035.25;;;-2.14;98.88
70968;BME280;58629;48.808;8.820;2024-01-15T01:38:12;96040.78;;;-2.16;98.86
70968;BME280;58629;48.808;8.820;2024-01-15T01:40:38;96039.97;;;-2.20;98.36
70968;BME280;58629;48.808;8.820;2024-01-15T01:43:05;96038.50;;;-2.21;99.07
70968;BME280;58629;48.808;8.820;2024-01-15T01:45:30;96046.63;;;-2.22;98.90
70968;BME280;58629;48.808;8.820;2024-01-15T01:47:56;96038.53;;;-2.17;99.06
70968;BME280;58629;48.808;8.820;2024-01-15T01:50:21;96043.69;;;-2.21;98.92
70968;BME280;58629;48.808;8.820;2024-01-15T01:52:47;96037.78;;;-2.18;98.58
70968;BME280;58629;48.808;8.820;2024-01-15T01:55:13;96035.59;;;-2.16;99.14
70968;BME280;58629;48.808;8.820;2024-01-15T01:57:40;96034.16;;;-2.13;97.40
70968;BME280;58629;48.808;8.820;2024-01-15T02:00:06;96033.75;;;-2.15;97.83
70968;BME280;58629;48.808;8.820;2024-01-15T02:02:32;96035.50;;;-2.23;98.85
70968;BME280;58629;48.808;8.820;2024-01-15T02:04:58;96047.31;;;-2.25;98.86
70968;BME280;58629;48.808;8.820;2024-01-15T02:07:24;96037.75;;;-2.21;99.07
70968;BME280;58629;48.808;8.820;2024-01-15T02:09:49;96032.56;;;-2.21;99.09
70968;BME280;58629;48.808;8.820;2024-01-15T02:12:15;96036.25;;;-2.22;99.14
70968;BME280;58629;48.808;8.820;2024-01-15T02:14:41;96026.63;;;-2.22;99.27
70968;BME280;58629;48.808;8.820;2024-01-15T02:17:06;96021.91;;;-2.16;98.68
70968;BME280;58629;48.808;8.820;2024-01-15T02:19:32;96018.31;;;-2.08;98.79
70968;BME280;58629;48.808;8.820;2024-01-15T02:21:57;96019.00;;;-2.11;98.29
70968;BME280;58629;48.808;8.820;2024-01-15T02:24:22;96020.19;;;-2.05;98.51
70968;BME280;58629;48.808;8.820;2024-01-15T02:26:48;96012.41;;;-2.05;98.39
70968;BME280;58629;48.808;8.820;2024-01-15T02:29:14;96019.50;;;-2.02;97.94
70968;BME280;58629;48.808;8.820;2024-01-15T02:31:40;96016.50;;;-2.04;98.00
70968;BME280;58629;48.808;8.820;2024-01-15T02:34:05;96020.94;;;-2.05;98.52
70968;BME280;58629;48.808;8.820;2024-01-15T02:36:31;96022.03;;;-2.06;97.73
70968;BME280;58629;48.808;8.820;2024-01-15T02:38:56;96024.28;;;-2.04;97.69
70968;BME280;58629;48.808;8.820;2024-01-15T02:41:22;96023.16;;;-2.03;97.78
70968;BME280;58629;48.808;8.820;2024-01-15T02:43:47;96017.97;;;-2.03;98.33
70968;BME280;58629;48.808;8.820;2024-01-15T02:46:12;96015.09;;;-1.98;98.68
70968;BME280;58629;48.808;8.820;2024-01-15T02:48:38;96011.00;;;-1.99;98.05
70968;BME280;58629;48.808;8.820;2024-01-15T02:51:03;96008.44;;;-1.96;97.88
70968;BME280;58629;48.808;8.820;2024-01-15T02:53:28;96009.22;;;-1.92;97.28
70968;BME280;58629;48.808;8.820;2024-01-15T02:55:54;96014.06;;;-1.90;96.63
70968;BME280;58629;48.808;8.820;2024-01-15T02:58:19;96008.47;;;-1.92;97.30
70968;BME280;58629;48.808;8.820;2024-01-15T03:00:45;96014.06;;;-1.90;97.63
70968;BME280;58629;48.808;8.820;2024-01-15T03:03:11;96015.16;;;-1.91;97.44
70968;BME280;58629;48.808;8.820;2024-01-15T03:05:37;96013.66;;;-1.92;97.82
70968;BME280;58629;48.808;8.820;2024-01-15T03:08:02;96012.97;;;-1.89;97.22
70968;BME280;58629;48.808;8.820;2024-01-15T03:10:27;96012.97;;;-1.89;97.17
70968;BME280;58629;48.808;8.820;2024-01-15T03:12:53;96007.47;;;-1.84;96.78
70968;BME280;58629;48.808;8.820;2024-01-15T03:15:18;96005.63;;;-1.84;96.98
70968;BME280;58629;48.808;8.820;2024-01-15T03:17:43;96005.63;;;-1.84;97.61
70968;BME280;58629;48.808;8.820;2024-01-15T03:20:09;96007.84;;;-1.82;96.63
70968;BME280;58629;48.808;8.820;2024-01-15T03:22:34;96003.06;;;-1.80;96.50
70968;BME280;58629;48.808;8.820;2024-01-15T03:25:00;96003.47;;;-1.78;96.42
70968;BME280;58629;48.808;8.820;2024-01-15T03:27:25;96005.38;;;-1.75;95.64
70968;BME280;58629;48.808;8.820;2024-01-15T03:29:51;96005.00;;;-1.73;96.20
70968;BME280;58629;48.808;8.820;2024-01-15T03:32:16;95994.25;;;-1.72;95.63
70968;BME280;58629;48.808;8.820;2024-01-15T03:34:42;95994.78;;;-1.59;95.00
70968;BME280;58629;48.808;8.820;2024-01-15T03:37:07;95995.44;;;-1.66;95.11
70968;BME280;58629;48.808;8.820;2024-01-15T03:39:32;95996.56;;;-1.67;95.31
70968;BME280;58629;48.808;8.820;2024-01-15T03:41:58;95989.91;;;-1.64;95.66
70968;BME280;58629;48.808;8.820;2024-01-15T03:44:23;95991.38;;;-1.67;95.42
70968;BME280;58629;48.808;8.820;2024-01-15T03:46:48;95993.97;;;-1.67;95.16
70968;BME280;58629;48.808;8.820;2024-01-15T03:49:14;95990.31;;;-1.62;95.04
70968;BME280;58629;48.808;8.820;2024-01-15T03:51:39;95985.88;;;-1.58;94.49
70968;BME280;58629;48.808;8.820;2024-01-15T03:54:05;95981.44;;;-1.58;95.06
70968;BME280;58629;48.808;8.820;2024-01-15T03:56:30;95977.81;;;-1.50;93.85
70968;BME280;58629;48.808;8.820;2024-01-15T03:58:55;95975.56;;;-1.55;94.36
70968;BME280;58629;48.808;8.820;2024-01-15T04:01:20;95975.56;;;-1.55;94.33
70968;BME280;58629;48.808;8.820;2024-01-15T04:03:46;95974.81;;;-1.55;94.30
70968;BME280;58629;48.808;8.820;2024-01-15T04:06:11;95969.28;;;-1.50;93.20
70968;BME280;58629;48.808;8.820;2024-01-15T04:08:36;95968.50;;;-1.54;94.03
70968;BME280;58629;48.808;8.820;2024-01-15T04:11:02;95974.81;;;-1.55;94.27
70968;BME280;58629;48.808;8.820;2024-01-15T04:13:27;95967.38;;;-1.57;94.17
70968;BME280;58629;48.808;8.820;2024-01-15T04:15:53;95974.81;;;-1.55;94.16
70968;BME280;58629;48.808;8.820;2024-01-15T04:18:18;95965.16;;;-1.55;94.50
70968;BME280;58629;48.808;8.820;2024-01-15T04:20:43;95968.84;;;-1.56;93.87
70968;BME280;58629;48.808;8.820;2024-01-15T04:23:09;95955.88;;;-1.56;93.74
70968;BME280;58629;48.808;8.820;2024-01-15T04:25:34;95952.91;;;-1.54;93.92
70968;BME280;58629;48.808;8.820;2024-01-15T04:27:59;95954.47;;;-1.50;93.66
70968;BME280;58629;48.808;8.820;2024-01-15T04:30:25;95959.66;;;-1.50;93.36
70968;BME280;58629;48.808;8.820;2024-01-15T04:32:50;95956.75;;;-1.45;93.43
70968;BME280;58629;48.808;8.820;2024-01-15T04:35:15;95950.81;;;-1.45;92.66
70968;BME280;58629;48.808;8.820;2024-01-15T04:37:41;95956.75;;;-1.45;93.30
70968;BME280;58629;48.808;8.820;2024-01-15T04:40:07;95944.97;;;-1.35;92.92
70968;BME280;58629;48.808;8.820;2024-01-15T04:42:32;95958.25;;;-1.40;93.17
70968;BME280;58629;48.808;8.820;2024-01-15T04:44:58;95947.53;;;-1.39;92.77
70968;BME280;58629;48.808;8.820;2024-01-15T04:47:23;95951.69;;;-1.31;92.72
70968;BME280;58629;48.808;8.820;2024-01-15T04:49:49;95949.75;;;-1.37;92.82
70968;BME280;58629;48.808;8.820;2024-01-15T04:52:14;95945.28;;;-1.40;93.60
70968;BME280;58629;48.808;8.820;2024-01-15T04:54:40;95951.56;;;-1.41;94.23
70968;BME280;58629;48.808;8.820;2024-01-15T04:57:05;95944.56;;;-1.37;94.33
70968;BME280;58629;48.808;8.820;2024-01-15T04:59:31;95941.22;;;-1.38;94.10
70968;BME280;58629;48.808;8.820;2024-01-15T05:01:56;95943.06;;;-1.38;93.50
70968;BME280;58629;48.808;8.820;2024-01-15T05:04:21;95939.44;;;-1.27;92.67
70968;BME280;58629;48.808;8.820;2024-01-15T05:06:47;95929.03;;;-1.30;92.84
70968;BME280;58629;48.808;8.820;2024-01-15T05:09:12;95939.44;;;-1.30;93.04
70968;BME280;58629;48.808;8.820;2024-01-15T05:11:39;95926.44;;;-1.30;92.38
70968;BME280;58629;48.808;8.820;2024-01-15T05:14:04;95926.41;;;-1.34;93.80
70968;BME280;58629;48.808;8.820;2024-01-15T05:16:29;95921.63;;;-1.28;92.37
70968;BME280;58629;48.808;8.820;2024-01-15T05:18:54;95920.91;;;-1.29;92.17
70968;BME280;58629;48.808;8.820;2024-01-15T05:21:20;95911.22;;;-1.32;92.81
70968;BME280;58629;48.808;8.820;2024-01-15T05:23:45;95899.00;;;-1.31;93.14
70968;BME280;58629;48.808;8.820;2024-01-15T05:26:10;95903.84;;;-1.26;90.85
70968;BME280;58629;48.808;8.820;2024-01-15T05:28:36;95909.78;;;-1.29;91.39
70968;BME280;58629;48.808;8.820;2024-01-15T05:31:01;95910.94;;;-1.23;90.89
70968;BME280;58629;48.808;8.820;2024-01-15T05:33:27;95911.66;;;-1.23;90.37
70968;BME280;58629;48.808;8.820;2024-01-15T05:35:52;95915.75;;;-1.22;90.35
70968;BME280;58629;48.808;8.820;2024-01-15T05:38:19;95902.75;;;-1.25;90.95
70968;BME280;58629;48.808;8.820;2024-01-15T05:40:44;95907.59;;;-1.24;91.70
70968;BME280;58629;48.808;8.820;2024-01-15T05:43:09;95916.47;;;-1.25;90.70
70968;BME280;58629;48.808;8.820;2024-01-15T05:45:37;95908.69;;;-1.25;90.30
70968;BME280;58629;48.808;8.820;2024-01-15T05:48:03;95925.34;;;-1.29;90.34
70968;BME280;58629;48.808;8.820;2024-01-15T05:50:29;95917.19;;;-1.28;90.54
70968;BME280;58629;48.808;8.820;2024-01-15T05:52:54;95925.34;;;-1.29;90.56
70968;BME280;58629;48.808;8.820;2024-01-15T05:55:19;95911.63;;;-1.30;90.29
70968;BME280;58629;48.808;8.820;2024-01-15T05:57:45;95904.25;;;-1.21;90.13
70968;BME280;58629;48.808;8.820;2024-01-15T06:00:11;95903.53;;;-1.21;89.96
70968;BME280;58629;48.808;8.820;2024-01-15T06:02:39;95896.13;;;-1.19;89.51
70968;BME280;58629;48.808;8.820;2024-01-15T06:05:05;95894.22;;;-1.22;90.04
70968;BME280;58629;48.808;8.820;2024-01-15T06:07:31;95893.56;;;-1.16;89.16
70968;BME280;58629;48.808;8.820;2024-01-15T06:09:56;95887.94;;;-1.21;89.25
70968;BME280;58629;48.808;8.820;2024-01-15T06:12:22;95882.78;;;-1.14;88.68
70968;BME280;58629;48.808;8.820;2024-01-15T06:14:47;95880.53;;;-1.19;88.96
70968;BME280;58629;48.808;8.820;2024-01-15T06:17:13;95880.16;;;-1.21;88.82
70968;BME280;58629;48.808;8.820;2024-01-15T06:19:38;95879.09;;;-1.13;88.05
70968;BME280;58629;48.808;8.820;2024-01-15T06:22:03;95867.22;;;-1.11;86.78
70968;BME280;58629;48.808;8.820;2024-01-15T06:24:29;95865.78;;;-1.08;85.97
70968;BME280;58629;48.808;8.820;2024-01-15T06:26:54;95865.41;;;-1.07;86.25
70968;BME280;58629;48.808;8.820;2024-01-15T06:29:19;95860.56;;;-1.08;85.59
70968;BME280;58629;48.808;8.820;2024-01-15T06:31:45;95861.72;;;-1.06;85.21
70968;BME280;58629;48.808;8.820;2024-01-15T06:34:10;95860.66;;;-0.94;85.17
70968;BME280;58629;48.808;8.820;2024-01-15T06:36:35;95865.50;;;-0.93;84.43
70968;BME280;58629;48.808;8.820;2024-01-15T06:39:01;95858.41;;;-0.99;84.76
70968;BME280;58629;48.808;8.820;2024-01-15T06:41:26;95865.41;;;-1.07;84.80
70968;BME280;58629;48.808;8.820;2024-01-15T06:43:51;95874.28;;;-1.11;85.46
70968;BME280;58629;48.808;8.820;2024-01-15T06:46:20;95865.38;;;-1.14;85.91
70968;BME280;58629;48.808;8.820;2024-01-15T06:48:46;95867.63;;;-1.09;85.82
70968;BME280;58629;48.808;8.820;2024-01-15T06:51:12;95867.22;;;-1.11;86.94
70968;BME280;58629;48.808;8.820;2024-01-15T06:53:37;95860.56;;;-1.12;86.96
70968;BME280;58629;48.808;8.820;2024-01-15T06:56:03;95862.38;;;-1.19;87.17
70968;BME280;58629;48.808;8.820;2024-01-15T06:58:28;95870.16;;;-1.19;86.95
70968;BME280;58629;48.808;8.820;2024-01-15T07:00:53;95869.38;;;-1.23;87.43
70968;BME280;58629;48.808;8.820;2024-01-15T07:03:19;95869.00;;;-1.22;87.60
70968;BME280;58629;48.808;8.820;2024-01-15T07:05:44;95875.69;;;-1.21;87.43
70968;BME280;58629;48.808;8.820;2024-01-15T07:08:09;95866.78;;;-1.23;87.63
70968;BME280;58629;48.808;8.820;2024-01-15T07:10:35;95867.50;;;-1.23;88.27
70968;BME280;58629;48.808;8.820;2024-01-15T07:13:00;95877.59;;;-1.18;87.31
70968;BME280;58629;48.808;8.820;2024-01-15T07:15:25;95876.84;;;-1.15;87.45
70968;BME280;58629;48.808;8.820;2024-01-15T07:17:51;95887.97;;;-1.18;87.27
70968;BME280;58629;48.808;8.820;2024-01-15T07:20:16;95888.72;;;-1.17;87.51
70968;BME280;58629;48.808;8.820;2024-01-15T07:22:42;95889.78;;;-1.22;87.51
70968;BME280;58629;48.808;8.820;2024-01-15T07:25:07;95883.88;;;-1.19;88.24
70968;BME280;58629;48.808;8.820;2024-01-15T07:27:33;95897.97;;;-1.20;88.55
70968;BME280;58629;48.808;8.820;2024-01-15T07:29:58;95894.31;;;-1.15;87.55
70968;BME280;58629;48.808;8.820;2024-01-15T07:32:24;95891.31;;;-1.17;88.05
70968;BME280;58629;48.808;8.820;2024-01-15T07:34:49;95900.97;;;-1.14;87.69
70968;BME280;58629;48.808;8.820;2024-01-15T07:37:15;95897.59;;;-1.18;87.01
70968;BME280;58629;48.808;8.820;2024-01-15T07:39:40;95899.06;;;-1.21;87.38
70968;BME280;58629;48.808;8.820;2024-01-15T07:42:05;95902.44;;;-1.17;88.60
70968;BME280;58629;48.808;8.820;2024-01-15T07:44:31;95899.88;;;-1.13;87.70
70968;BME280;58629;48.808;8.820;2024-01-15T07:46:56;95895.47;;;-1.09;88.27
70968;BME280;58629;48.808;8.820;2024-01-15T07:49:21;95893.59;;;-1.09;87.18
70968;BME280;58629;48.808;8.820;2024-01-15T07:51:48;95892.53;;;-1.04;86.53
70968;BME280;58629;48.808;8.820;2024-01-15T07:54:14;95892.91;;;-1.02;86.09
70968;BME280;58629;48.808;8.820;2024-01-15T07:56:59;95894.03;;;-1.00;85.64
70968;BME280;58629;48.808;8.820;2024-01-15T07:59:24;95895.59;;;-0.88;86.01
70968;BME280;58629;48.808;8.820;2024-01-15T08:01:51;95891.88;;;-0.91;84.43
70968;BME280;58629;48.808;8.820;2024-01-15T08:04:16;95895.94;;;-0.93;84.96
70968;BME280;58629;48.808;8.820;2024-01-15T08:06:42;95899.34;;;-0.85;84.14
70968;BME280;58629;48.808;8.820;2024-01-15T08:09:07;95907.53;;;-0.80;83.75
70968;BME280;58629;48.808;8.820;2024-01-15T08:11:34;95905.25;;;-0.85;83.26
70968;BME280;58629;48.808;8.820;2024-01-15T08:13:59;95900.50;;;-0.79;84.47
70968;BME280;58629;48.808;8.820;2024-01-15T08:16:24;95908.66;;;-0.77;83.59
70968;BME280;58629;48.808;8.820;2024-01-15T08:18:50;95900.88;;;-0.77;82.55
70968;BME280;58629;48.808;8.820;2024-01-15T08:21:15;95894.53;;;-0.80;83.52
70968;BME280;58629;48.808;8.820;2024-01-15T08:23:41;95898.28;;;-0.77;83.70
70968;BME280;58629;48.808;8.820;2024-01-15T08:26:06;95896.44;;;-0.73;83.75
70968;BME280;58629;48.808;8.820;2024-01-15T08:28:32;95899.03;;;-0.73;82.07
70968;BME280;58629;48.808;8.820;2024-01-15T08:30:57;95901.66;;;-0.70;82.27
70968;BME280;58629;48.808;8.820;2024-01-15T08:33:22;95900.22;;;-0.64;83.01
70968;BME280;58629;48.808;8.820;2024-01-15T08:35:48;95897.25;;;-0.59;83.07
70968;BME280;58629;48.808;8.820;2024-01-15T08:38:13;95896.16;;;-0.54;82.42
70968;BME280;58629;48.808;8.820;2024-01-15T08:40:38;95894.34;;;-0.47;82.48
70968;BME280;58629;48.808;8.820;2024-01-15T08:43:04;95894.34;;;-0.50;81.43
70968;BME280;58629;48.808;8.820;2024-01-15T08:45:32;95899.56;;;-0.47;82.19
70968;BME280;58629;48.808;8.820;2024-01-15T08:47:57;95889.84;;;-0.53;81.83
70968;BME280;58629;48.808;8.820;2024-01-15T08:50:22;95895.09;;;-0.50;81.58
70968;BME280;58629;48.808;8.820;2024-01-15T08:52:48;95885.41;;;-0.49;80.94
70968;BME280;58629;48.808;8.820;2024-01-15T08:55:13;95889.91;;;-0.43;81.28
70968;BME280;58629;48.808;8.820;2024-01-15T08:57:38;95890.66;;;-0.42;81.77
70968;BME280;58629;48.808;8.820;2024-01-15T09:00:05;95891.03;;;-0.40;80.42
70968;BME280;58629;48.808;8.820;2024-01-15T09:02:34;95895.16;;;-0.36;81.67
70968;BME280;58629;48.808;8.820;2024-01-15T09:05:00;95885.09;;;-0.41;81.10
70968;BME280;58629;48.808;8.820;2024-01-15T09:07:25;95888.47;;;-0.33;80.93
70968;BME280;58629;48.808;8.820;2024-01-15T09:09:52;95886.25;;;-0.31;81.36
70968;BME280;58629;48.808;8.820;2024-01-15T09:12:17;95882.56;;;-0.27;81.49
70968;BME280;58629;48.808;8.820;2024-01-15T09:14:44;95869.59;;;-0.13;81.10
70968;BME280;58629;48.808;8.820;2024-01-15T09:17:09;95861.41;;;-0.11;80.90
70968;BME280;58629;48.808;8.820;2024-01-15T09:19:34;95864.41;;;-0.06;81.57
70968;BME280;58629;48.808;8.820;2024-01-15T09:22:00;95872.59;;;-0.04;81.38
70968;BME280;58629;48.808;8.820;2024-01-15T09:24:25;95862.94;;;0.00;81.34
70968;BME280;58629;48.808;8.820;2024-01-15T09:26:51;95860.66;;;-0.12;83.50
70968;BME280;58629;48.808;8.820;2024-01-15T09:29:16;95868.09;;;-0.14;82.26
70968;BME280;58629;48.808;8.820;2024-01-15T09:31:42;95868.13;;;-0.10;82.06
70968;BME280;58629;48.808;8.820;2024-01-15T09:34:07;95876.28;;;-0.15;83.46
70968;BME280;58629;48.808;8.820;2024-01-15T09:36:32;95873.31;;;-0.14;83.36
70968;BME280;58629;48.808;8.820;2024-01-15T09:38:58;95880.00;;;-0.09;83.76
70968;BME280;58629;48.808;8.820;2024-01-15T09:41:23;95886.69;;;-0.15;83.41
70968;BME280;58629;48.808;8.820;2024-01-15T09:43:49;95879.25;;;-0.17;82.82
70968;BME280;58629;48.808;8.820;2024-01-15T09:46:15;95874.03;;;-0.20;83.54
70968;BME280;58629;48.808;8.820;2024-01-15T09:48:41;95880.00;;;-0.16;84.44
70968;BME280;58629;48.808;8.820;2024-01-15T09:51:07;95868.84;;;-0.13;83.26
70968;BME280;58629;48.808;8.820;2024-01-15T09:53:34;95871.88;;;-0.04;83.22
70968;BME280;58629;48.808;8.820;2024-01-15T09:56:01;95865.91;;;0.03;83.39
70968;BME280;58629;48.808;8.820;2024-01-15T09:58:27;95860.00;;;0.06;82.99
70968;BME280;58629;48.808;8.820;2024-01-15T10:00:55;95856.63;;;0.09;83.10
70968;BME280;58629;48.808;8.820;2024-01-15T10:03:21;95854.41;;;0.14;83.33
70968;BME280;58629;48.808;8.820;2024-01-15T10:05:46;95859.28;;;0.16;83.79
70968;BME280;58629;48.808;8.820;2024-01-15T10:08:12;95860.00;;;0.16;83.26
70968;BME280;58629;48.808;8.820;2024-01-15T10:10:38;95855.53;;;0.17;81.09
70968;BME280;58629;48.808;8.820;2024-01-15T10:13:03;95852.94;;;0.20;83.06
70968;BME280;58629;48.808;8.820;2024-01-15T10:15:34;95846.25;;;0.23;83.12
70968;BME280;58629;48.808;8.820;2024-01-15T10:18:02;95850.72;;;0.19;82.24
70968;BME280;58629;48.808;8.820;2024-01-15T10:20:27;95842.19;;;0.22;83.18
70968;BME280;58629;48.808;8.820;2024-01-15T10:22:52;95841.44;;;0.21;82.21
70968;BME280;58629;48.808;8.820;2024-01-15T10:25:18;95847.00;;;0.23;83.02
70968;BME280;58629;48.808;8.820;2024-01-15T10:28:05;95836.22;;;0.28;83.93
70968;BME280;58629;48.808;8.820;2024-01-15T10:30:32;95829.53;;;0.27;83.11
70968;BME280;58629;48.808;8.820;2024-01-15T10:32:58;95823.59;;;0.41;83.53
70968;BME280;58629;48.808;8.820;2024-01-15T10:35:33;95817.28;;;0.45;83.27
70968;BME280;58629;48.808;8.820;2024-01-15T10:37:59;95819.13;;;0.45;84.76
70968;BME280;58629;48.808;8.820;2024-01-15T10:40:25;95816.91;;;0.47;84.35
70968;BME280;58629;48.808;8.820;2024-01-15T10:42:50;95817.28;;;0.59;85.29
70968;BME280;58629;48.808;8.820;2024-01-15T10:45:16;95816.16;;;0.46;86.48
70968;BME280;58629;48.808;8.820;2024-01-15T10:47:42;95812.06;;;0.45;87.80
70968;BME280;58629;48.808;8.820;2024-01-15T10:50:09;95807.22;;;0.44;90.42
70968;BME280;58629;48.808;8.820;2024-01-15T10:52:36;95803.84;;;0.40;91.76
70968;BME280;58629;48.808;8.820;2024-01-15T10:55:06;95807.22;;;0.30;93.06
70968;BME280;58629;48.808;8.820;2024-01-15T10:57:33;95805.72;;;0.32;93.77
70968;BME280;58629;48.808;8.820;2024-01-15T10:59:58;95807.56;;;0.14;97.77
70968;BME280;58629;48.808;8.820;2024-01-15T11:02:25;95806.09;;;0.17;98.07
70968;BME280;58629;48.808;8.820;2024-01-15T11:04:51;95803.13;;;0.22;98.28
70968;BME280;58629;48.808;8.820;2024-01-15T11:07:16;95804.97;;;0.21;98.73
70968;BME280;58629;48.808;8.820;2024-01-15T11:09:43;95797.91;;;0.22;98.44
70968;BME280;58629;48.808;8.820;2024-01-15T11:12:13;95807.56;;;0.14;97.46
70968;BME280;58629;48.808;8.820;2024-01-15T11:14:49;95791.56;;;0.12;97.82
70968;BME280;58629;48.808;8.820;2024-01-15T11:17:16;95795.28;;;0.18;98.02
70968;BME280;58629;48.808;8.820;2024-01-15T11:24:54;95785.63;;;0.22;99.96
70968;BME280;58629;48.808;8.820;2024-01-15T11:27:39;95786.00;;;0.21;100.00
70968;BME280;58629;48.808;8.820;2024-01-15T11:30:08;95789.34;;;0.04;100.00
70968;BME280;58629;48.808;8.820;2024-01-15T11:32:34;95782.63;;;0.06;100.00
70968;BME280;58629;48.808;8.820;2024-01-15T11:35:01;95781.88;;;-0.02;100.00
70968;BME280;58629;48.808;8.820;2024-01-15T11:37:29;95779.28;;;-0.02;100.00
70968;BME280;58629;48.808;8.820;2024-01-15T11:40:01;95778.94;;;0.14;100.00
70968;BME280;58629;48.808;8.820;2024-01-15T11:42:29;95770.75;;;0.05;100.00
70968;BME280;58629;48.808;8.820;2024-01-15T11:44:55;95781.53;;;0.11;100.00
70968;BME280;58629;48.808;8.820;2024-01-15T11:47:51;95788.63;;;0.28;100.00
70968;BME280;58629;48.808;8.820;2024-01-15T11:50:17;95780.06;;;0.31;100.00
70968;BME280;58629;48.808;8.820;2024-01-15T11:52:56;95787.88;;;0.31;100.00
70968;BME280;58629;48.808;8.820;2024-01-15T11:55:30;95794.94;;;0.37;100.00
70968;BME280;58629;48.808;8.820;2024-01-15T11:58:00;95800.16;;;0.23;100.00
70968;BME280;58629;48.808;8.820;2024-01-15T12:00:26;95796.06;;;0.29;100.00
70968;BME280;58629;48.808;8.820;2024-01-15T12:02:51;95793.44;;;0.19;100.00
70968;BME280;58629;48.808;8.820;2024-01-15T12:05:18;95796.41;;;0.24;100.00
70968;BME280;58629;48.808;8.820;2024-01-15T12:07:47;95797.91;;;0.29;100.00
70968;BME280;58629;48.808;8.820;2024-01-15T12:10:18;95800.50;;;0.32;100.00
70968;BME280;58629;48.808;8.820;2024-01-15T12:12:47;95804.25;;;0.28;100.00
70968;BME280;58629;48.808;8.820;2024-01-15T12:15:15;95808.69;;;0.17;100.00
70968;BME280;58629;48.808;8.820;2024-01-15T12:17:41;95797.16;;;0.14;100.00
70968;BME280;58629;48.808;8.820;2024-01-15T12:20:07;95802.34;;;0.14;100.00
70968;BME280;58629;48.808;8.820;2024-01-15T12:22:32;95798.63;;;0.08;100.00
70968;BME280;58629;48.808;8.820;2024-01-15T12:24:58;95804.97;;;0.11;100.00
70968;BME280;58629;48.808;8.820;2024-01-15T12:27:24;95803.84;;;0.19;100.00
70968;BME280;58629;48.808;8.820;2024-01-15T12:29:49;95808.72;;;0.27;100.00
70968;BME280;58629;48.808;8.820;2024-01-15T12:32:15;95794.94;;;0.37;100.00
70968;BME280;58629;48.808;8.820;2024-01-15T12:34:40;95803.13;;;0.43;100.00
70968;BME280;58629;48.808;8.820;2024-01-15T12:37:07;95805.38;;;0.37;100.00
70968;BME280;58629;48.808;8.820;2024-01-15T12:39:34;95797.16;;;0.21;100.00
70968;BME280;58629;48.808;8.820;2024-01-15T12:42:01;95799.78;;;0.42;100.00
70968;BME280;58629;48.808;8.820;2024-01-15T12:44:26;95798.28;;;0.34;100.00
70968;BME280;58629;48.808;8.820;2024-01-15T12:46:52;95799.41;;;0.26;100.00
70968;BME280;58629;48.808;8.820;2024-01-15T12:49:17;95802.75;;;0.23;100.00
70968;BME280;58629;48.808;8.820;2024-01-15T12:51:43;95800.53;;;0.39;100.00
70968;BME280;58629;48.808;8.820;2024-01-15T12:54:08;95804.63;;;0.47;100.00
70968;BME280;58629;48.808;8.820;2024-01-15T12:56:33;95799.41;;;0.26;100.00
70968;BME280;58629;48.808;8.820;2024-01-15T12:58:59;95799.41;;;0.26;100.00